Time;durP1;ratioP1;P1;durP2;ratioP2;P2;SDS_P1;SDS_P2;PMS_P1;PMS_P2;Temp;Humidity;BMP_temperature;BMP_pressure;BME280_temperature;BME280_humidity;BME280_pressure;Samples;Min_cycle;Max_cycle;Signal;HPM_P1;HPM_P2
2021/10/20 00:02:18;;;;;;;0.60;0.60;;;2.00;99.90;;;;;;5154561;27;20057;-67
2021/10/20 00:04:44;;;;;;;0.50;0.50;;;2.00;99.90;;;;;;5154371;27;20040;-67
2021/10/20 00:07:10;;;;;;;0.75;0.60;;;2.00;99.90;;;;;;5154341;27;20688;-67
2021/10/20 00:09:36;;;;;;;1.40;0.70;;;2.00;99.90;;;;;;5154245;27;20033;-66
2021/10/20 00:12:02;;;;;;;0.70;0.70;;;2.00;99.90;;;;;;5153974;27;20378;-67
2021/10/20 00:14:29;;;;;;;0.95;0.80;;;2.10;99.90;;;;;;5154343;27;20378;-67
2021/10/20 00:16:55;;;;;;;1.60;0.65;;;2.10;99.90;;;;;;5153827;27;20033;-67
2021/10/20 00:19:21;;;;;;;1.17;0.77;;;2.00;99.90;;;;;;5154265;27;20027;-67
2021/10/20 00:21:47;;;;;;;0.77;0.77;;;2.10;99.90;;;;;;5153763;27;20519;-67
2021/10/20 00:24:13;;;;;;;0.90;0.68;;;2.10;99.90;;;;;;5153892;27;20030;-67
2021/10/20 00:26:38;;;;;;;3.55;0.93;;;2.10;99.90;;;;;;5154114;27;20019;-67
2021/10/20 00:29:05;;;;;;;1.08;0.80;;;2.10;99.90;;;;;;5153686;27;20486;-67
2021/10/20 00:31:30;;;;;;;0.85;0.85;;;2.10;99.90;;;;;;5153712;27;20543;-67
2021/10/20 00:33:56;;;;;;;0.95;0.70;;;2.10;99.90;;;;;;5153737;27;20027;-69
2021/10/20 00:36:22;;;;;;;0.82;0.70;;;2.10;99.90;;;;;;5153796;27;20051;-68
2021/10/20 00:38:48;;;;;;;1.52;0.80;;;2.10;99.90;;;;;;5153681;27;20026;-68
2021/10/20 00:41:14;;;;;;;0.70;0.70;;;2.10;99.90;;;;;;5153815;27;20023;-68
2021/10/20 00:43:41;;;;;;;2.15;0.85;;;2.10;99.90;;;;;;5152510;27;20015;-68
2021/10/20 00:46:07;;;;;;;1.20;0.90;;;2.10;99.90;;;;;;5153743;27;20029;-68
2021/10/20 00:48:33;;;;;;;1.73;0.90;;;2.10;99.90;;;;;;5153611;27;20034;-68
2021/10/20 00:50:59;;;;;;;0.82;0.70;;;2.20;99.90;;;;;;5153562;27;20022;-68
2021/10/20 00:53:25;;;;;;;1.30;0.70;;;2.10;99.90;;;;;;5153659;27;20098;-67
2021/10/20 00:55:51;;;;;;;2.13;0.77;;;2.20;99.90;;;;;;5153357;27;20522;-68
2021/10/20 00:58:18;;;;;;;1.80;0.60;;;2.20;99.90;;;;;;5153575;27;20097;-67
2021/10/20 01:00:43;;;;;;;0.80;0.80;;;2.10;99.90;;;;;;5155894;27;20071;-68
2021/10/20 01:03:09;;;;;;;1.58;0.70;;;2.20;99.90;;;;;;5157702;27;20416;-68
2021/10/20 01:05:35;;;;;;;1.25;0.60;;;2.20;99.90;;;;;;5157976;27;20125;-68
2021/10/20 01:08:01;;;;;;;2.33;0.90;;;2.20;99.90;;;;;;5157669;27;20526;-68
2021/10/20 01:10:26;;;;;;;0.88;0.77;;;2.20;99.90;;;;;;5157580;27;20027;-67
2021/10/20 01:12:53;;;;;;;1.05;0.93;;;2.20;99.90;;;;;;5157332;27;20070;-67
2021/10/20 01:15:24;;;;;;;0.57;0.57;;;2.20;99.90;;;;;;5157444;27;20038;-69
2021/10/20 01:17:50;;;;;;;1.65;0.70;;;2.10;99.90;;;;;;5156006;27;20026;-69
2021/10/20 01:20:18;;;;;;;0.55;0.55;;;2.20;99.90;;;;;;5156180;27;20114;-68
2021/10/20 01:22:44;;;;;;;1.88;0.90;;;2.20;99.90;;;;;;5157290;27;20106;-68
2021/10/20 01:25:11;;;;;;;0.73;0.60;;;2.10;99.90;;;;;;5157229;27;20106;-67
2021/10/20 01:27:38;;;;;;;2.65;0.98;;;2.20;99.90;;;;;;5157196;27;20052;-68
2021/10/20 01:30:05;;;;;;;1.63;0.80;;;2.20;99.90;;;;;;5157420;27;20031;-68
2021/10/20 01:32:31;;;;;;;1.10;0.80;;;2.20;99.90;;;;;;5157162;27;20023;-67
2021/10/20 01:34:57;;;;;;;0.73;0.70;;;2.20;99.90;;;;;;5157021;27;20037;-68
2021/10/20 01:37:24;;;;;;;0.70;0.70;;;2.20;99.90;;;;;;5155704;27;20054;-68
2021/10/20 01:39:51;;;;;;;1.40;0.75;;;2.20;99.90;;;;;;5157224;27;20047;-67
2021/10/20 01:42:17;;;;;;;2.72;0.60;;;2.20;99.90;;;;;;5157155;27;20041;-67
2021/10/20 01:44:43;;;;;;;0.95;0.70;;;2.20;99.90;;;;;;5155615;27;20029;-68
2021/10/20 01:47:09;;;;;;;0.77;0.60;;;2.20;99.90;;;;;;5156834;27;20381;-67
2021/10/20 01:49:35;;;;;;;1.30;1.13;;;2.10;99.90;;;;;;5138299;27;20490;-67
2021/10/20 01:52:00;;;;;;;0.60;0.60;;;2.10;99.90;;;;;;5156659;27;20493;-67
2021/10/20 01:54:26;;;;;;;2.05;0.77;;;2.10;99.90;;;;;;5156584;27;20047;-67
2021/10/20 01:56:54;;;;;;;0.70;0.70;;;2.10;99.90;;;;;;5156554;27;20030;-67
2021/10/20 01:59:19;;;;;;;1.88;0.60;;;2.00;99.90;;;;;;5156716;27;20018;-67
2021/10/20 02:01:45;;;;;;;0.50;0.50;;;2.00;99.90;;;;;;5156573;27;20026;-67
2021/10/20 02:04:12;;;;;;;0.60;0.60;;;2.00;99.90;;;;;;5156555;27;20031;-67
2021/10/20 02:06:41;;;;;;;1.50;0.68;;;2.00;99.90;;;;;;5156718;27;20049;-67
2021/10/20 02:09:07;;;;;;;0.70;0.70;;;2.00;99.90;;;;;;5156620;27;20058;-67
2021/10/20 02:11:37;;;;;;;1.30;0.60;;;2.00;99.90;;;;;;5155733;27;20496;-67
2021/10/20 02:14:05;;;;;;;0.80;0.80;;;2.00;99.90;;;;;;5156291;27;20490;-67
2021/10/20 02:16:30;;;;;;;1.95;0.60;;;1.90;99.90;;;;;;5156468;27;20027;-67
2021/10/20 02:18:56;;;;;;;3.63;0.80;;;1.90;99.90;;;;;;5155051;27;20031;-67
2021/10/20 02:21:22;;;;;;;0.52;0.50;;;1.90;99.90;;;;;;5156546;27;20022;-67
2021/10/20 02:55:17;;;;;;;0.60;0.60;;;2.00;99.90;;;;;;5155287;27;20057;-67
2021/10/20 02:57:43;;;;;;;0.65;0.60;;;2.10;99.90;;;;;;5155524;27;20098;-67
2021/10/20 03:00:09;;;;;;;1.85;0.70;;;2.10;99.90;;;;;;5155437;27;20023;-67
2021/10/20 03:02:35;;;;;;;1.65;0.75;;;2.10;99.90;;;;;;5155334;27;20019;-68
2021/10/20 03:05:01;;;;;;;1.15;0.70;;;2.10;99.90;;;;;;5155470;27;20026;-67
2021/10/20 03:07:26;;;;;;;2.00;0.70;;;2.10;99.90;;;;;;5155443;27;20029;-67
2021/10/20 03:09:52;;;;;;;2.08;0.80;;;2.10;99.90;;;;;;5155108;27;20482;-67
2021/10/20 03:12:18;;;;;;;0.65;0.65;;;2.10;99.90;;;;;;5153875;27;20027;-67
2021/10/20 03:14:43;;;;;;;0.80;0.80;;;2.10;99.90;;;;;;5155249;27;20022;-67
2021/10/20 03:17:11;;;;;;;1.00;0.90;;;2.10;99.90;;;;;;5153600;27;20023;-67
2021/10/20 03:19:37;;;;;;;1.10;1.00;;;2.20;99.90;;;;;;5155080;27;20459;-67
2021/10/20 03:22:04;;;;;;;0.95;0.95;;;2.10;99.90;;;;;;5154934;27;20113;-67
2021/10/20 03:24:30;;;;;;;0.90;0.90;;;2.10;99.90;;;;;;5155309;27;20023;-67
2021/10/20 03:26:55;;;;;;;1.77;1.08;;;2.20;99.90;;;;;;5153594;27;20096;-67
2021/10/20 03:29:21;;;;;;;1.10;0.77;;;2.20;99.90;;;;;;5154802;27;20051;-67
2021/10/20 03:31:47;;;;;;;1.10;1.00;;;2.20;99.90;;;;;;5155245;27;20026;-67
2021/10/20 03:34:12;;;;;;;2.05;0.90;;;2.20;99.90;;;;;;5154709;27;20457;-69
2021/10/20 03:36:38;;;;;;;0.93;0.90;;;2.30;99.90;;;;;;5155169;27;20075;-68
2021/10/20 03:39:04;;;;;;;1.67;1.00;;;2.30;99.90;;;;;;5155003;27;20014;-68
2021/10/20 03:41:29;;;;;;;0.80;0.80;;;2.30;99.90;;;;;;5154883;27;20405;-68
2021/10/20 03:43:55;;;;;;;1.13;0.98;;;2.40;99.90;;;;;;5154501;27;20098;-67
2021/10/20 03:46:21;;;;;;;1.58;0.75;;;2.40;99.90;;;;;;5154725;27;20026;-67
2021/10/20 03:48:46;;;;;;;2.00;0.73;;;2.40;99.90;;;;;;5154644;27;20531;-67
2021/10/20 03:51:12;;;;;;;0.80;0.70;;;2.50;99.90;;;;;;5154447;27;20102;-67
2021/10/20 03:53:38;;;;;;;0.68;0.68;;;2.50;99.90;;;;;;5154308;27;20394;-68
2021/10/20 03:56:04;;;;;;;1.40;0.90;;;2.50;99.90;;;;;;5154176;27;20083;-68
2021/10/20 03:58:30;;;;;;;1.45;0.85;;;2.60;99.90;;;;;;5154329;27;20506;-68
2021/10/20 04:00:57;;;;;;;0.80;0.80;;;2.60;99.90;;;;;;5154218;27;20109;-69
2021/10/20 04:03:22;;;;;;;1.58;0.70;;;2.60;99.90;;;;;;5154261;27;20080;-69
2021/10/20 04:05:48;;;;;;;0.80;0.60;;;2.60;99.90;;;;;;5154282;27;20050;-68
2021/10/20 04:08:14;;;;;;;0.80;0.80;;;2.70;99.90;;;;;;5153943;27;20103;-68
2021/10/20 04:10:40;;;;;;;1.58;0.80;;;2.70;99.90;;;;;;5154127;27;20029;-69
2021/10/20 04:13:06;;;;;;;0.52;0.52;;;2.80;99.90;;;;;;5154120;27;20029;-68
2021/10/20 04:15:31;;;;;;;0.80;0.68;;;2.80;99.90;;;;;;5154361;27;20377;-69
2021/10/20 04:17:57;;;;;;;0.80;0.70;;;2.80;99.90;;;;;;5153877;27;20492;-68
2021/10/20 04:20:24;;;;;;;30.38;5.95;;;2.90;99.90;;;;;;5153889;27;20015;-69
2021/10/20 04:22:52;;;;;;;5.43;1.40;;;2.90;99.90;;;;;;5153897;27;20669;-69
2021/10/20 04:25:19;;;;;;;6.63;1.75;;;3.00;99.90;;;;;;5153805;27;20054;-69
2021/10/20 04:27:46;;;;;;;6.53;1.83;;;3.00;99.90;;;;;;5153989;27;20106;-70
2021/10/20 04:30:14;;;;;;;3.92;1.35;;;3.00;99.90;;;;;;5153568;27;20055;-69
2021/10/20 04:32:40;;;;;;;9.95;2.35;;;3.00;99.90;;;;;;5153747;27;20025;-67
2021/10/20 04:35:07;;;;;;;11.02;2.08;;;3.00;99.90;;;;;;5153013;27;20048;-63
2021/10/20 04:37:33;;;;;;;7.35;2.35;;;3.00;99.90;;;;;;5153622;27;20027;-66
2021/10/20 04:40:00;;;;;;;3.35;1.42;;;3.10;99.90;;;;;;5153560;27;20373;-64
2021/10/20 04:42:27;;;;;;;8.60;2.20;;;3.60;99.90;;;;;;5143942;27;20019;-64
2021/10/20 04:44:53;;;;;;;11.48;2.10;;;3.50;99.90;;;;;;5132869;28;20023;-65
2021/10/20 04:47:19;;;;;;;13.45;2.60;;;3.40;99.90;;;;;;5139472;27;20042;-65
2021/10/20 04:49:45;;;;;;;8.02;1.70;;;3.30;99.90;;;;;;5139305;27;20050;-66
2021/10/20 04:52:11;;;;;;;9.98;2.05;;;3.30;99.90;;;;;;5143057;27;20029;-66
2021/10/20 04:54:37;;;;;;;5.25;1.58;;;3.30;99.90;;;;;;5137274;27;20039;-65
2021/10/20 04:57:04;;;;;;;14.50;3.13;;;3.30;99.90;;;;;;5130206;27;20027;-66
2021/10/20 04:59:31;;;;;;;8.07;1.98;;;3.30;99.90;;;;;;5130219;27;20387;-66
2021/10/20 05:02:01;;;;;;;6.78;1.52;;;3.30;99.90;;;;;;5126893;27;20424;-64
2021/10/20 05:04:28;;;;;;;1.98;1.10;;;3.30;99.90;;;;;;5143476;27;20102;-64
2021/10/20 05:06:54;;;;;;;1.73;0.93;;;3.30;99.90;;;;;;5139014;27;20446;-64
2021/10/20 05:09:19;;;;;;;2.20;0.70;;;3.30;99.90;;;;;;5142510;27;20066;-64
2021/10/20 05:11:45;;;;;;;2.03;1.00;;;3.30;99.90;;;;;;5143325;27;20098;-64
2021/10/20 05:14:11;;;;;;;0.70;0.70;;;3.30;99.90;;;;;;5140989;27;20031;-64
2021/10/20 05:16:36;;;;;;;1.77;0.90;;;3.30;99.90;;;;;;5142892;27;21289;-64
2021/10/20 05:19:02;;;;;;;2.35;1.10;;;3.30;99.90;;;;;;5137725;27;20023;-66
2021/10/20 05:21:28;;;;;;;11.23;1.58;;;3.40;99.90;;;;;;5132511;28;20490;-64
2021/10/20 05:23:54;;;;;;;0.80;0.80;;;3.40;99.90;;;;;;5144578;27;20059;-64
2021/10/20 05:26:21;;;;;;;3.58;1.00;;;3.40;99.90;;;;;;5132468;28;20023;-64
2021/10/20 05:28:47;;;;;;;4.40;0.90;;;3.50;99.90;;;;;;5132305;28;20088;-64
2021/10/20 05:31:13;;;;;;;6.50;1.75;;;3.50;99.90;;;;;;5132519;28;20019;-64
2021/10/20 05:33:39;;;;;;;14.27;2.70;;;3.50;99.90;;;;;;5132700;28;20027;-61
2021/10/20 05:36:08;;;;;;;0.88;0.80;;;3.70;99.90;;;;;;5132370;28;20121;-62
2021/10/20 05:38:34;;;;;;;5.22;1.40;;;3.70;99.90;;;;;;5132648;28;20475;-62
2021/10/20 05:40:59;;;;;;;3.58;1.10;;;3.70;99.90;;;;;;5140653;27;20038;-62
2021/10/20 05:43:25;;;;;;;4.32;1.30;;;3.70;99.90;;;;;;5144011;27;20409;-62
2021/10/20 05:45:51;;;;;;;1.65;0.90;;;3.70;99.90;;;;;;5147067;27;20076;-62
2021/10/20 05:48:22;;;;;;;2.45;1.02;;;3.70;99.90;;;;;;5138124;27;20042;-62
2021/10/20 05:50:48;;;;;;;3.65;1.02;;;3.70;99.90;;;;;;5151690;27;20025;-62
2021/10/20 05:53:14;;;;;;;2.13;0.68;;;3.80;99.90;;;;;;5156382;27;20099;-62
2021/10/20 05:55:40;;;;;;;1.15;0.80;;;3.80;99.90;;;;;;5156485;27;20063;-62
2021/10/20 05:58:07;;;;;;;1.08;0.80;;;3.80;99.90;;;;;;5156247;27;20030;-63
2021/10/20 06:00:33;;;;;;;0.60;0.60;;;3.80;99.90;;;;;;5156453;27;20025;-62
2021/10/20 06:02:59;;;;;;;4.50;0.82;;;3.80;99.90;;;;;;5156273;27;20027;-61
2021/10/20 06:05:24;;;;;;;5.32;1.35;;;3.90;99.90;;;;;;5156671;27;20034;-62
2021/10/20 06:07:51;;;;;;;4.15;1.35;;;3.90;99.90;;;;;;5156179;27;20279;-62
2021/10/20 06:10:16;;;;;;;2.03;1.23;;;3.90;99.90;;;;;;5156514;27;20030;-62
2021/10/20 06:12:43;;;;;;;2.53;1.00;;;3.90;99.90;;;;;;5149849;27;20027;-65
2021/10/20 06:15:09;;;;;;;2.17;0.90;;;3.90;99.90;;;;;;5142713;27;20041;-62
2021/10/20 06:17:36;;;;;;;2.40;0.70;;;4.00;99.90;;;;;;5135312;27;20027;-62
2021/10/20 06:20:04;;;;;;;1.02;0.73;;;4.00;99.90;;;;;;5132491;27;20034;-62
2021/10/20 06:22:30;;;;;;;3.75;1.30;;;4.00;99.90;;;;;;5130927;27;20113;-62
2021/10/20 06:24:56;;;;;;;2.47;1.30;;;4.00;99.90;;;;;;5134492;27;20145;-61
2021/10/20 06:27:22;;;;;;;0.95;0.68;;;4.00;99.90;;;;;;5134806;27;20020;-61
2021/10/20 06:29:47;;;;;;;0.75;0.73;;;4.10;99.90;;;;;;5134910;27;20038;-61
2021/10/20 06:32:13;;;;;;;12.82;2.60;;;4.10;99.90;;;;;;5134801;27;20043;-61
2021/10/20 06:34:39;;;;;;;2.25;0.60;;;4.10;99.90;;;;;;5134455;27;20058;-61
2021/10/20 06:37:05;;;;;;;2.22;0.70;;;4.10;99.90;;;;;;5133313;27;20047;-62
2021/10/20 06:39:30;;;;;;;3.00;0.88;;;4.10;99.90;;;;;;5135001;27;20103;-62
2021/10/20 06:41:56;;;;;;;1.05;0.82;;;4.20;99.90;;;;;;5135082;27;20474;-61
2021/10/20 06:44:22;;;;;;;3.92;1.13;;;4.20;99.90;;;;;;5134467;27;20080;-62
2021/10/20 06:46:48;;;;;;;4.32;1.23;;;4.20;99.90;;;;;;5134958;27;20023;-63
2021/10/20 06:49:14;;;;;;;3.72;0.90;;;4.20;99.90;;;;;;5134239;27;20027;-63
2021/10/20 06:51:41;;;;;;;3.40;1.15;;;4.20;99.90;;;;;;5134639;27;20023;-63
2021/10/20 06:54:07;;;;;;;1.55;0.70;;;4.20;99.90;;;;;;5134157;27;20019;-63
2021/10/20 06:56:32;;;;;;;3.65;1.10;;;4.30;99.90;;;;;;5133221;27;20107;-63
2021/10/20 06:58:58;;;;;;;1.63;0.80;;;4.30;99.90;;;;;;5133512;27;20088;-63
2021/10/20 07:01:24;;;;;;;2.67;0.82;;;4.30;99.90;;;;;;5134658;27;20030;-63
2021/10/20 07:03:50;;;;;;;1.00;0.82;;;4.30;99.90;;;;;;5134616;27;20111;-63
2021/10/20 07:06:15;;;;;;;1.08;0.70;;;4.30;99.90;;;;;;5134196;27;20019;-63
2021/10/20 07:08:41;;;;;;;2.55;0.93;;;4.40;99.90;;;;;;5133991;27;20046;-63
2021/10/20 07:11:07;;;;;;;3.30;0.90;;;4.40;99.90;;;;;;5132768;27;20454;-64
2021/10/20 07:13:33;;;;;;;1.23;0.80;;;4.40;99.90;;;;;;5134151;27;20076;-63
2021/10/20 07:15:59;;;;;;;27.65;4.95;;;4.40;99.90;;;;;;5132746;27;20440;-64
2021/10/20 07:18:27;;;;;;;7.45;1.83;;;4.40;99.90;;;;;;5134108;27;20031;-64
2021/10/20 07:20:53;;;;;;;6.25;1.50;;;4.40;99.90;;;;;;5139567;27;20058;-64
2021/10/20 07:23:19;;;;;;;2.38;0.82;;;4.40;99.90;;;;;;5148316;27;20057;-63
2021/10/20 07:25:45;;;;;;;3.28;0.98;;;4.40;99.90;;;;;;5138401;27;20463;-64
2021/10/20 07:28:10;;;;;;;1.20;0.85;;;4.40;99.90;;;;;;5148101;27;20031;-63
2021/10/20 07:30:37;;;;;;;0.82;0.60;;;4.40;99.90;;;;;;5154532;27;20490;-64
2021/10/20 07:33:03;;;;;;;1.42;0.73;;;4.50;99.90;;;;;;5154387;27;20022;-63
2021/10/20 07:35:29;;;;;;;2.85;0.70;;;4.50;99.90;;;;;;5145788;27;20030;-64
2021/10/20 07:37:55;;;;;;;0.60;0.60;;;4.50;99.90;;;;;;5133798;27;20028;-64
2021/10/20 07:40:20;;;;;;;2.25;0.93;;;4.50;99.90;;;;;;5133262;27;20426;-64
2021/10/20 07:42:46;;;;;;;1.38;0.70;;;4.50;99.90;;;;;;5133843;27;20023;-64
2021/10/20 07:45:19;;;;;;;2.05;0.85;;;4.50;99.90;;;;;;5137360;27;20027;-64
2021/10/20 07:47:47;;;;;;;1.10;0.70;;;4.50;99.90;;;;;;5142439;27;20378;-64
2021/10/20 07:50:14;;;;;;;1.80;0.70;;;4.60;99.90;;;;;;5143104;27;20052;-63
2021/10/20 07:52:41;;;;;;;2.15;0.80;;;4.60;99.90;;;;;;5141949;27;20018;-63
2021/10/20 07:55:08;;;;;;;3.45;0.90;;;4.60;99.90;;;;;;5138513;27;20118;-63
2021/10/20 07:57:35;;;;;;;3.22;0.80;;;4.60;99.90;;;;;;5134079;27;20091;-62
2021/10/20 08:00:02;;;;;;;0.95;0.73;;;4.60;99.90;;;;;;5133508;27;20027;-63
2021/10/20 08:02:28;;;;;;;5.43;1.30;;;4.60;99.90;;;;;;5134048;27;20019;-66
2021/10/20 08:04:55;;;;;;;2.53;0.95;;;4.60;99.90;;;;;;5132412;27;20016;-64
2021/10/20 08:07:20;;;;;;;1.33;0.70;;;4.60;99.90;;;;;;5133622;27;20030;-65
2021/10/20 08:09:48;;;;;;;1.23;0.70;;;4.60;99.90;;;;;;5149433;27;20038;-65
2021/10/20 08:12:16;;;;;;;2.15;0.80;;;4.70;99.90;;;;;;5154194;27;20019;-65
2021/10/20 08:14:43;;;;;;;0.90;0.60;;;4.90;99.90;;;;;;5154114;27;20023;-65
2021/10/20 08:17:09;;;;;;;0.70;0.70;;;5.00;99.90;;;;;;5154069;27;20015;-66
2021/10/20 08:19:35;;;;;;;2.05;0.80;;;5.00;99.90;;;;;;5152686;27;20019;-68
2021/10/20 08:22:01;;;;;;;1.13;0.70;;;4.90;99.90;;;;;;5152871;27;20038;-68
2021/10/20 08:24:28;;;;;;;1.05;0.60;;;5.00;99.90;;;;;;5152538;27;20015;-68
2021/10/20 08:26:54;;;;;;;14.75;3.95;;;5.00;99.90;;;;;;5153769;27;20022;-68
2021/10/20 08:29:20;;;;;;;1.50;0.77;;;4.90;99.90;;;;;;5153550;27;20027;-68
2021/10/20 08:31:45;;;;;;;4.20;0.80;;;4.90;99.90;;;;;;5154043;27;20107;-67
2021/10/20 08:34:11;;;;;;;0.80;0.80;;;4.80;99.90;;;;;;5153953;27;20031;-68
2021/10/20 08:36:38;;;;;;;3.97;0.70;;;4.80;99.90;;;;;;5153823;27;20418;-68
2021/10/20 08:39:04;;;;;;;1.25;0.70;;;4.80;99.90;;;;;;5153803;27;20025;-67
2021/10/20 08:41:31;;;;;;;2.35;0.70;;;4.80;99.90;;;;;;5153597;27;20042;-67
2021/10/20 08:43:58;;;;;;;2.13;0.80;;;4.80;99.90;;;;;;5153932;27;20101;-67
2021/10/20 08:46:25;;;;;;;3.00;0.70;;;4.80;99.90;;;;;;5153515;27;20030;-67
2021/10/20 08:48:56;;;;;;;0.82;0.80;;;4.80;99.90;;;;;;5153556;27;20066;-67
2021/10/20 08:51:23;;;;;;;2.80;0.90;;;4.80;99.90;;;;;;5153557;27;20500;-67
2021/10/20 08:53:50;;;;;;;0.98;0.60;;;4.80;99.90;;;;;;5153569;27;21317;-67
2021/10/20 08:56:17;;;;;;;1.50;0.80;;;4.80;99.90;;;;;;5152018;27;20475;-67
2021/10/20 08:58:43;;;;;;;2.10;0.73;;;4.80;99.90;;;;;;5153460;27;20482;-67
2021/10/20 09:01:09;;;;;;;1.27;0.60;;;4.80;99.90;;;;;;5153488;27;20019;-67
2021/10/20 09:03:35;;;;;;;1.77;0.70;;;4.80;99.90;;;;;;5153359;27;20063;-67
2021/10/20 09:06:01;;;;;;;2.30;0.90;;;4.80;99.90;;;;;;5153607;27;20023;-67
2021/10/20 09:08:27;;;;;;;0.77;0.68;;;4.80;99.90;;;;;;5153199;27;20129;-66
2021/10/20 09:10:52;;;;;;;0.70;0.68;;;4.80;99.90;;;;;;5153275;27;20026;-67
2021/10/20 09:13:21;;;;;;;2.05;0.70;;;4.80;99.90;;;;;;5153372;27;20019;-68
2021/10/20 09:15:47;;;;;;;1.08;0.70;;;4.80;99.90;;;;;;5153732;27;20090;-68
2021/10/20 09:18:14;;;;;;;1.52;0.60;;;4.90;99.90;;;;;;5153255;27;20160;-64
2021/10/20 09:20:45;;;;;;;0.98;0.75;;;4.90;99.90;;;;;;5153383;27;20019;-65
2021/10/20 09:23:20;;;;;;;0.63;0.60;;;4.80;99.90;;;;;;5157178;27;20042;-65
2021/10/20 09:25:58;;;;;;;2.03;0.77;;;4.80;99.90;;;;;;5157297;27;20045;-66
2021/10/20 09:28:33;;;;;;;0.60;0.60;;;4.80;99.90;;;;;;5142337;27;20036;-66
2021/10/20 09:31:02;;;;;;;0.63;0.60;;;4.80;99.90;;;;;;5136609;27;20072;-65
2021/10/20 09:33:36;;;;;;;0.77;0.77;;;4.80;99.90;;;;;;5136380;27;20390;-68
2021/10/20 09:36:07;;;;;;;0.60;0.60;;;4.80;99.90;;;;;;5136266;27;20015;-68
2021/10/20 09:38:35;;;;;;;2.45;1.30;;;4.80;99.90;;;;;;5135823;27;20019;-68
2021/10/20 09:41:08;;;;;;;2.45;0.80;;;4.80;99.90;;;;;;5135165;27;20034;-68
2021/10/20 09:43:56;;;;;;;11.27;2.28;;;4.80;99.90;;;;;;5140853;27;20015;-68
2021/10/20 09:46:42;;;;;;;2.50;0.95;;;4.80;99.90;;;;;;5144193;27;20027;-68
2021/10/20 09:49:15;;;;;;;2.58;1.10;;;4.70;99.90;;;;;;5142973;27;20039;-67
2021/10/20 09:51:41;;;;;;;0.65;0.50;;;4.70;99.90;;;;;;5126945;27;20062;-65
2021/10/20 09:54:21;;;;;;;2.20;0.65;;;4.70;99.90;;;;;;5117402;27;20031;-65
2021/10/20 09:56:57;;;;;;;1.67;1.00;;;4.70;99.90;;;;;;5126177;27;20027;-65
2021/10/20 09:59:28;;;;;;;0.98;0.75;;;4.70;99.90;;;;;;5131039;27;20244;-65
2021/10/20 10:01:55;;;;;;;2.28;0.70;;;4.70;99.90;;;;;;5143635;27;20030;-65
2021/10/20 10:04:20;;;;;;;1.25;0.70;;;4.70;99.90;;;;;;5143889;27;20039;-65
2021/10/20 10:06:48;;;;;;;0.68;0.68;;;4.70;99.90;;;;;;5139725;27;20057;-62
2021/10/20 10:09:15;;;;;;;1.20;0.60;;;4.70;99.90;;;;;;5156459;27;20039;-63
2021/10/20 10:12:10;;;;;;;0.65;0.57;;;4.70;99.90;;;;;;5137966;27;20114;-63
2021/10/20 10:14:50;;;;;;;0.63;0.63;;;4.70;99.90;;;;;;5152919;27;20025;-63
2021/10/20 10:17:19;;;;;;;1.10;0.90;;;4.70;99.90;;;;;;5156082;27;20027;-63
2021/10/20 10:19:46;;;;;;;1.27;0.70;;;4.70;99.90;;;;;;5156294;27;20023;-63
2021/10/20 10:22:29;;;;;;;14.77;3.10;;;4.70;99.90;;;;;;5153612;27;20029;-63
2021/10/20 10:24:59;;;;;;;10.00;2.47;;;4.70;99.90;;;;;;5154808;27;20071;-64
2021/10/20 10:27:24;;;;;;;;;;;4.70;99.90;;;;;;5156567;27;20019;-64
2021/10/20 10:29:55;;;;;;;2.03;0.75;;;4.70;99.90;;;;;;5154606;27;19933;-64
2021/10/20 10:32:26;;;;;;;2.78;0.90;;;4.70;99.90;;;;;;5155416;27;20350;-64
2021/10/20 10:34:52;;;;;;;14.45;2.60;;;4.70;99.90;;;;;;5156073;27;20054;-64
2021/10/20 10:37:28;;;;;;;2.17;0.95;;;4.80;99.90;;;;;;5155789;27;20049;-64
2021/10/20 10:39:54;;;;;;;3.20;1.08;;;4.80;99.90;;;;;;5144031;27;20015;-64
2021/10/20 10:42:37;;;;;;;3.20;0.82;;;4.80;99.90;;;;;;5143778;27;20028;-64
2021/10/20 10:45:12;;;;;;;1.73;0.98;;;4.80;99.90;;;;;;5143936;27;20556;-63
2021/10/20 10:47:58;;;;;;;2.35;1.00;;;4.80;99.90;;;;;;5134560;27;20027;-64
2021/10/20 10:50:43;;;;;;;2.60;1.17;;;4.90;99.90;;;;;;5134501;27;20027;-63
2021/10/20 10:53:26;;;;;;;1.02;0.80;;;4.90;99.90;;;;;;5134803;27;20027;-63
2021/10/20 10:56:15;;;;;;;3.20;1.30;;;4.90;99.90;;;;;;5134651;27;20046;-63
2021/10/20 10:58:53;;;;;;;3.03;1.10;;;4.90;99.90;;;;;;5134794;27;20217;-63
2021/10/20 11:01:47;;;;;;;3.67;1.20;;;4.90;99.90;;;;;;5134498;27;20015;-63
2021/10/20 11:04:34;;;;;;;2.30;1.20;;;4.90;99.90;;;;;;5134490;27;20055;-63
2021/10/20 11:07:02;;;;;;;2.67;1.00;;;4.90;99.90;;;;;;5134951;27;20061;-63
2021/10/20 11:09:34;;;;;;;5.93;1.10;;;4.90;99.90;;;;;;5134227;27;20031;-63
2021/10/20 11:12:03;;;;;;;2.58;1.25;;;4.90;99.90;;;;;;5134794;27;20024;-63
2021/10/20 11:14:30;;;;;;;1.35;0.85;;;4.90;99.90;;;;;;5134186;27;20023;-63
2021/10/20 11:16:57;;;;;;;1.10;0.80;;;4.90;99.90;;;;;;5134508;27;20057;-63
2021/10/20 11:19:23;;;;;;;12.25;2.30;;;4.90;99.90;;;;;;5134526;27;20023;-63
2021/10/20 11:21:50;;;;;;;2.70;1.10;;;4.90;99.90;;;;;;5134423;27;20098;-63
2021/10/20 11:24:16;;;;;;;2.70;0.90;;;4.90;99.90;;;;;;5134356;27;20065;-63
2021/10/20 11:26:46;;;;;;;2.67;1.20;;;4.90;99.90;;;;;;5134253;27;20031;-63
2021/10/20 11:29:13;;;;;;;8.05;2.63;;;5.00;99.90;;;;;;5133923;27;20035;-63
2021/10/20 11:31:49;;;;;;;2.05;0.90;;;5.00;99.90;;;;;;5134038;27;20019;-63
2021/10/20 11:34:16;;;;;;;1.02;0.70;;;5.00;99.90;;;;;;5133833;27;20027;-64
2021/10/20 11:36:45;;;;;;;4.38;1.05;;;5.00;99.90;;;;;;5142876;27;20071;-64
2021/10/20 11:39:11;;;;;;;2.97;1.00;;;4.90;99.90;;;;;;5142145;27;20015;-62
2021/10/20 11:41:47;;;;;;;1.83;1.00;;;5.00;99.90;;;;;;5133889;27;20107;-64
2021/10/20 11:44:12;;;;;;;1.38;0.80;;;5.30;99.90;;;;;;5133147;27;20412;-62
2021/10/20 11:46:44;;;;;;;1.85;0.80;;;5.60;99.90;;;;;;5133338;27;20023;-62
2021/10/20 11:49:10;;;;;;;1.50;0.90;;;5.40;99.90;;;;;;5133605;27;20066;-62
2021/10/20 11:51:35;;;;;;;4.63;1.40;;;5.30;99.90;;;;;;5133908;27;20043;-62
2021/10/20 11:54:06;;;;;;;4.80;1.50;;;5.20;99.90;;;;;;5133699;27;20042;-62
2021/10/20 11:56:32;;;;;;;16.33;3.35;;;5.20;99.90;;;;;;5133819;27;20039;-62
2021/10/20 11:58:58;;;;;;;45.00;10.13;;;5.10;99.90;;;;;;5133735;27;20035;-62
2021/10/20 12:01:24;;;;;;;33.47;8.05;;;5.10;99.90;;;;;;5133328;27;20356;-62
2021/10/20 12:03:49;;;;;;;38.17;8.82;;;5.10;99.90;;;;;;5133647;27;20019;-62
2021/10/20 12:06:18;;;;;;;8.43;1.83;;;5.10;99.90;;;;;;5133630;27;20483;-64
2021/10/20 12:08:47;;;;;;;3.85;1.58;;;5.10;99.90;;;;;;5133195;27;20034;-63
2021/10/20 12:11:18;;;;;;;3.17;1.13;;;5.10;99.90;;;;;;5133370;27;20479;-63
2021/10/20 12:13:44;;;;;;;4.50;1.70;;;5.10;99.90;;;;;;5133352;27;20023;-63
2021/10/20 12:16:11;;;;;;;6.05;1.80;;;5.10;99.90;;;;;;5133418;27;20102;-65
2021/10/20 12:18:43;;;;;;;5.75;1.70;;;5.10;99.90;;;;;;5132986;27;20427;-64
2021/10/20 12:21:11;;;;;;;6.10;1.70;;;5.10;99.90;;;;;;5134922;27;20386;-63
2021/10/20 12:23:37;;;;;;;2.80;1.00;;;5.10;99.90;;;;;;5133041;27;20038;-63
2021/10/20 12:26:05;;;;;;;2.15;1.13;;;5.10;99.90;;;;;;5133133;27;20459;-65
2021/10/20 12:28:31;;;;;;;1.20;0.90;;;5.10;99.90;;;;;;5135003;27;20031;-65
2021/10/20 12:31:03;;;;;;;2.58;1.10;;;5.10;99.90;;;;;;5144210;27;20034;-65
2021/10/20 12:33:28;;;;;;;3.55;1.15;;;5.30;99.90;;;;;;5133056;27;20026;-64
2021/10/20 12:35:54;;;;;;;2.97;0.98;;;5.30;99.90;;;;;;5132621;27;20440;-65
2021/10/20 12:38:21;;;;;;;4.40;1.05;;;5.20;99.90;;;;;;5132994;27;20049;-64
2021/10/20 12:40:47;;;;;;;3.33;1.02;;;5.20;99.90;;;;;;5148572;27;20026;-64
2021/10/20 12:43:18;;;;;;;2.15;1.13;;;5.20;99.90;;;;;;5153785;27;20087;-64
2021/10/20 12:45:47;;;;;;;;;;;5.20;99.90;;;;;;5141385;27;20027;-64
2021/10/20 12:48:13;;;;;;;2.20;1.00;;;5.30;99.90;;;;;;5126309;28;19915;-64
2021/10/20 12:50:41;;;;;;;3.40;1.17;;;5.30;99.90;;;;;;5112184;28;20372;-64
2021/10/20 12:53:16;;;;;;;42.90;8.48;;;5.30;99.90;;;;;;5115329;28;20024;-64
2021/10/20 12:55:44;;;;;;;3.47;1.50;;;5.30;99.90;;;;;;5120492;28;20092;-64
2021/10/20 12:58:17;;;;;;;8.82;1.58;;;5.20;99.90;;;;;;5121994;27;20180;-64
2021/10/20 13:00:43;;;;;;;1.67;0.75;;;5.30;99.90;;;;;;5119042;27;20031;-64
2021/10/20 13:03:10;;;;;;;2.17;0.85;;;5.30;99.90;;;;;;5126963;27;20020;-64
2021/10/20 13:05:35;;;;;;;0.80;0.80;;;5.30;99.90;;;;;;5125340;27;20016;-64
2021/10/20 13:08:01;;;;;;;1.95;1.00;;;5.30;99.90;;;;;;5126747;27;20394;-64
2021/10/20 13:10:27;;;;;;;1.63;1.30;;;5.30;99.90;;;;;;5116469;28;20016;-63
2021/10/20 13:12:57;;;;;;;1.20;0.93;;;5.30;99.90;;;;;;5116434;28;20031;-63
2021/10/20 13:15:25;;;;;;;2.58;0.90;;;5.30;99.90;;;;;;5116485;28;20026;-63
2021/10/20 13:17:51;;;;;;;12.35;3.38;;;5.30;99.90;;;;;;5118973;27;20114;-63
2021/10/20 13:20:17;;;;;;;2.03;1.10;;;5.30;99.90;;;;;;5124741;27;20103;-63
2021/10/20 13:22:44;;;;;;;7.10;1.70;;;5.30;99.90;;;;;;5126615;27;20084;-64
2021/10/20 13:25:12;;;;;;;2.20;1.00;;;5.30;99.90;;;;;;5126473;27;20023;-64
2021/10/20 13:27:38;;;;;;;5.25;1.17;;;5.30;99.90;;;;;;5124656;27;20107;-64
2021/10/20 13:30:10;;;;;;;2.25;1.10;;;5.30;99.90;;;;;;5126125;27;20549;-64
2021/10/20 13:32:36;;;;;;;1.63;1.40;;;5.30;99.90;;;;;;5121140;27;20069;-64